• Join FlightAware (Why Join?)
  • Login
  • US Flag 
07:08AM EDT


 

Airport Tracker/Info


-or-


 

Live Flight TrackerFlight Track Log ✈ ASQ5740 ✈ 25-Nov-2013 ✈ KGSP - KIAD

Flight Track Log - Related Links

Times and Time Zones

All times are in EST time to prevent confusion due to time zone crossing. See the ASQ5740 flight status page for this flight to view local times or setup timezone preferences in your user account.

Time Position Orientation Groundspeed Altitude Reporting Facility
EST Latitude Longitude Course Direction KTS MPH feet Rate Location/Type
02:59PM 34.8069 -82.1844 68° East 267 307 5,200  Level Atlanta Center
03:00PM 34.8561 -82.1175 48° Northeast 295 339 7,900 2,640 Climbing Atlanta Center
03:01PM 34.9219 -82.0528 39° Northeast 302 348 10,500 1,740 Climbing Atlanta Center
03:02PM 34.9956 -81.9725 42° Northeast 324 373 11,400 1,140 Climbing Atlanta Center
03:03PM 35.3722 -81.6954 68° East  Level Estimated
03:03PM 35.0911 -81.9344 18° North 350 403 12,800  Level Atlanta Center
03:04PM 35.1786 -81.9397 357° North 359 413 14,000 1,320 Climbing Atlanta Center
03:05PM 35.2956 -81.9394 360° North 365 420 15,500 1,500 Climbing Atlanta Center
03:06PM 35.3756 -81.8583 40° Northeast 360 414 17,100 1,200 Climbing Atlanta Center
03:07PM 35.4211 -81.7297 66° East 362 417 17,900 900 Climbing Atlanta Center
03:08PM 35.4686 -81.6008 66° East 377 434 18,900 960 Climbing Atlanta Center
03:09PM 35.5161 -81.4694 66° East 399 459 19,900 960 Climbing Atlanta Center
03:10PM 35.5633 -81.3353 67° East 412 474 20,900 960 Climbing Atlanta Center
03:11PM 35.6103 -81.1958 67° East 426 490 21,900 1,020 Climbing Atlanta Center
03:12PM 35.6672 -81.0456 65° Northeast 440 506 23,000 900 Climbing Atlanta Center
03:13PM 35.7158 -80.9081 66° East 440 506 23,700 540 Climbing Atlanta Center
03:14PM 35.7664 -80.7653 66° East 440 506 24,100 480 Climbing Atlanta Center
03:16PM 35.8683 -80.4800 66° East 456 525 25,200 480 Climbing Washington Center
03:17PM 35.9203 -80.3319 67° East 467 537 25,700 480 Climbing Washington Center
03:18PM 35.9719 -80.1811 67° East 472 543 26,200 480 Climbing Washington Center
03:19PM 36.0325 -80.0203 65° Northeast 465 535 26,700 540 Climbing Washington Center
03:20PM 36.1042 -79.8803 58° Northeast 465 535 27,300 480 Climbing Washington Center
03:21PM 36.1714 -79.7553 56° Northeast 470 541 27,700 480 Climbing Washington Center
03:22PM 36.2556 -79.6078 55° Northeast 482 555 28,300 480 Climbing Washington Center
03:23PM 36.3242 -79.4875 55° Northeast 477 549 28,700 300 Climbing Washington Center
03:24PM 36.3997 -79.3492 56° Northeast 477 549 29,000 120 Climbing Washington Center
03:25PM 36.4792 -79.2083 55° Northeast 482 555 29,000  Level Washington Center
03:26PM 36.5561 -79.0750 54° Northeast 482 555 29,000 -900 Level Washington Center
03:27PM 36.6375 -78.9311 55° Northeast 482 555 27,200 -2,040 Descending Washington Center
03:28PM 36.7189 -78.7764 57° Northeast 488 562 25,000 -1,140 Descending Washington Center
03:29PM 36.7867 -78.6522 56° Northeast 462 532 25,000 -300 Level Washington Center
03:30PM 36.8503 -78.5353 56° Northeast 426 490 24,400 -840 Descending Washington Center
03:31PM 36.9067 -78.4361 55° Northeast 400 460 23,400 -1,020 Descending Washington Center
03:32PM 36.9678 -78.3214 56° Northeast 395 455 22,400 -720 Descending Washington Center
03:33PM 37.0328 -78.2119 53° Northeast 395 455 22,000 -240 Descending Washington Center
03:34PM 37.1156 -78.1494 31° Northeast 358 412 22,000  Level Washington Center
03:35PM 37.2006 -78.0844 31° Northeast 358 412 22,000  Level Washington Center
03:36PM 37.2853 -78.0169 32° Northeast 353 406 22,000  Level Washington Center
03:37PM 37.3722 -77.9492 32° Northeast 359 413 22,000  Level Washington Center
03:38PM 37.4611 -77.8811 31° Northeast 359 413 22,000  Level Washington Center
03:39PM 37.5478 -77.8183 30° Northeast 364 419 22,000 -600 Level Washington Center
03:40PM 37.6406 -77.7633 25° Northeast 364 419 20,900 -1,500 Descending Washington Center
03:41PM 37.7311 -77.7108 25° Northeast 359 413 19,000 -1,620 Descending Washington Center
03:42PM 37.8175 -77.6581 26° Northeast 349 402 17,700 -1,560 Descending Washington Center
03:43PM 37.9019 -77.6103 24° Northeast 337 388 15,900 -1,800 Descending Washington Center
03:44PM 37.9839 -77.5625 25° Northeast 332 382 14,100 -1,740 Descending Washington Center
03:45PM 38.0556 -77.5247 23° Northeast 319 367 12,500 -1,980 Descending Washington Center
03:46PM 38.1481 -77.4692 25° Northeast 312 359 10,300 -1,200 Descending Washington Center
03:47PM 38.2217 -77.4258 25° Northeast 295 339 10,100 -180 Descending Washington Center
03:48PM 38.2956 -77.3803 26° Northeast 290 334 10,000 -360 Descending Washington Center
03:49PM 38.3731 -77.3581 13° North 285 328 9,400 -1,200 Descending Washington Center
03:50PM 38.4522 -77.3600 359° North 280 322 7,700 -1,620 Descending Washington Center
03:51PM 38.5314 -77.3644 357° North 280 322 6,200 -1,440 Descending Washington Center
03:52PM 38.6083 -77.3664 359° North 280 322 4,900 -1,140 Descending Washington Center
03:52PM 38.6500 -77.3667 360° North 271 312 4,500 -600 Descending Potomac TRACON
03:53PM 38.7167 -77.3667 360° North 269 310 4,000 -300 Descending Potomac TRACON
03:54PM 38.8000 -77.3500 North 272 313 3,900 -240 Descending Potomac TRACON
03:55PM 38.8833 -77.3500 360° North 274 315 3,600 -420 Descending Potomac TRACON
03:56PM 38.9500 -77.3500 360° North 263 303 3,100 -300 Descending Potomac TRACON
03:57PM 39.0167 -77.3500 360° North 227 261 3,000 -360 Descending Potomac TRACON
03:58PM 39.0667 -77.3667 345° North 205 236 2,400 -540 Descending Potomac TRACON
03:59PM 39.0500 -77.4167 247° West 157 181 2,000 -480 Descending Potomac TRACON
04:00PM 39.0167 -77.4333 201° Southwest 137 158 1,600 -600 Descending Potomac TRACON
04:01PM 38.9833 -77.4333 180° South 131 151 800 -840 Descending Potomac TRACON
04:03PM 38.9474 -77.4599 191° South  Level Estimated
04:10PM 38.9474 -77.4599 191° South  Level Estimated
04:11PM 38.9474 -77.4599 191° South  Level Estimated